sensor_id;sensor_type;location;lat;lon;timestamp;pressure;altitude;pressure_sealevel;temperature;humidity
67430;BME280;54298;52.076;5.264;2023-04-29T00:00:21;101405.0;;;10.83;85.62
67430;BME280;54298;52.076;5.264;2023-04-29T00:01:57;101403.0;;;10.96;84.83
67430;BME280;54298;52.076;5.264;2023-04-29T00:03:34;101414.0;;;10.97;84.9
67430;BME280;54298;52.076;5.264;2023-04-29T00:06:47;101410.0;;;10.49;86.61
67430;BME280;54298;52.076;5.264;2023-04-29T00:08:23;101411.0;;;10.81;85.72
67430;BME280;54298;52.076;5.264;2023-04-29T00:09:59;101419.0;;;10.8;85.61
67430;BME280;54298;52.076;5.264;2023-04-29T00:11:35;101422.0;;;10.77;85.61
67430;BME280;54298;52.076;5.264;2023-04-29T00:14:47;101418.0;;;10.7;85.72
67430;BME280;54298;52.076;5.264;2023-04-29T00:16:24;101424.0;;;10.82;85.39
67430;BME280;54298;52.076;5.264;2023-04-29T00:18:00;101420.0;;;10.77;85.52
67430;BME280;54298;52.076;5.264;2023-04-29T00:21:12;101418.0;;;10.83;85.46
67430;BME280;54298;52.076;5.264;2023-04-29T00:22:48;101418.0;;;10.86;85.35
67430;BME280;54298;52.076;5.264;2023-04-29T00:24:24;101420.0;;;10.61;86.0
67430;BME280;54298;52.076;5.264;2023-04-29T00:27:36;101430.0;;;10.79;85.31
67430;BME280;54298;52.076;5.264;2023-04-29T00:29:13;101430.0;;;10.59;85.7
67430;BME280;54298;52.076;5.264;2023-04-29T00:30:49;101432.0;;;10.83;85.17
67430;BME280;54298;52.076;5.264;2023-04-29T00:34:01;101435.0;;;10.81;85.27
67430;BME280;54298;52.076;5.264;2023-04-29T00:35:37;101435.0;;;10.88;84.79
67430;BME280;54298;52.076;5.264;2023-04-29T00:37:13;101437.0;;;10.9;84.85
67430;BME280;54298;52.076;5.264;2023-04-29T00:38:49;101440.0;;;10.93;84.66
67430;BME280;54298;52.076;5.264;2023-04-29T00:42:02;101438.0;;;10.88;84.36
67430;BME280;54298;52.076;5.264;2023-04-29T00:43:39;101439.0;;;10.97;84.05
67430;BME280;54298;52.076;5.264;2023-04-29T00:45:15;101439.0;;;11.01;84.01
67430;BME280;54298;52.076;5.264;2023-04-29T00:48:27;101441.0;;;11.14;83.51
67430;BME280;54298;52.076;5.264;2023-04-29T00:50:04;101444.0;;;10.87;83.9
67430;BME280;54298;52.076;5.264;2023-04-29T00:51:43;101443.0;;;10.65;84.63
67430;BME280;54298;52.076;5.264;2023-04-29T00:54:56;101443.0;;;10.77;84.33
67430;BME280;54298;52.076;5.264;2023-04-29T00:56:33;101443.0;;;10.91;83.89
67430;BME280;54298;52.076;5.264;2023-04-29T00:58:11;101447.0;;;10.92;83.56
67430;BME280;54298;52.076;5.264;2023-04-29T00:59:47;101447.0;;;10.92;83.56
67430;BME280;54298;52.076;5.264;2023-04-29T01:03:00;101449.0;;;10.56;84.6
67430;BME280;54298;52.076;5.264;2023-04-29T01:04:36;101447.0;;;10.69;84.18
67430;BME280;54298;52.076;5.264;2023-04-29T01:06:25;101447.0;;;10.82;83.85
67430;BME280;54298;52.076;5.264;2023-04-29T01:08:14;101447.0;;;10.86;83.75
67430;BME280;54298;52.076;5.264;2023-04-29T01:11:53;101451.0;;;10.73;84.03
67430;BME280;54298;52.076;5.264;2023-04-29T01:13:42;101456.0;;;10.63;83.38
67430;BME280;54298;52.076;5.264;2023-04-29T01:15:23;101462.0;;;10.82;83.18
67430;BME280;54298;52.076;5.264;2023-04-29T01:17:05;101462.0;;;10.86;83.16
67430;BME280;54298;52.076;5.264;2023-04-29T01:18:48;101468.0;;;10.78;83.49
67430;BME280;54298;52.076;5.264;2023-04-29T01:22:05;101466.0;;;10.89;83.08
67430;BME280;54298;52.076;5.264;2023-04-29T01:23:41;101471.0;;;10.7;83.16
67430;BME280;54298;52.076;5.264;2023-04-29T01:25:18;101466.0;;;10.78;83.37
67430;BME280;54298;52.076;5.264;2023-04-29T01:26:56;101470.0;;;10.74;83.12
67430;BME280;54298;52.076;5.264;2023-04-29T01:30:33;101471.0;;;10.79;83.39
67430;BME280;54298;52.076;5.264;2023-04-29T01:32:17;101470.0;;;10.83;82.71
67430;BME280;54298;52.076;5.264;2023-04-29T01:34:07;101473.0;;;10.76;82.78
67430;BME280;54298;52.076;5.264;2023-04-29T01:35:52;101473.0;;;10.84;82.91
67430;BME280;54298;52.076;5.264;2023-04-29T01:37:40;101476.0;;;10.95;82.4
67430;BME280;54298;52.076;5.264;2023-04-29T01:39:32;101481.0;;;10.84;82.79
67430;BME280;54298;52.076;5.264;2023-04-29T01:42:59;101482.0;;;10.91;82.54
67430;BME280;54298;52.076;5.264;2023-04-29T01:44:37;101480.0;;;10.86;82.25
67430;BME280;54298;52.076;5.264;2023-04-29T01:46:16;101484.0;;;10.96;82.03
67430;BME280;54298;52.076;5.264;2023-04-29T01:47:52;101490.0;;;10.72;82.77
67430;BME280;54298;52.076;5.264;2023-04-29T01:51:05;101487.0;;;10.86;82.36
67430;BME280;54298;52.076;5.264;2023-04-29T01:52:41;101483.0;;;10.86;82.5
67430;BME280;54298;52.076;5.264;2023-04-29T01:54:17;101488.0;;;10.85;82.9
67430;BME280;54298;52.076;5.264;2023-04-29T01:57:30;101487.0;;;10.79;82.74
67430;BME280;54298;52.076;5.264;2023-04-29T01:59:06;101487.0;;;10.93;82.14
67430;BME280;54298;52.076;5.264;2023-04-29T02:00:42;101489.0;;;10.79;82.7
67430;BME280;54298;52.076;5.264;2023-04-29T02:03:54;101492.0;;;10.79;82.62
67430;BME280;54298;52.076;5.264;2023-04-29T02:05:30;101489.0;;;10.94;82.19
67430;BME280;54298;52.076;5.264;2023-04-29T02:07:06;101493.0;;;11.03;81.75
67430;BME280;54298;52.076;5.264;2023-04-29T02:10:19;101495.0;;;10.98;81.7
67430;BME280;54298;52.076;5.264;2023-04-29T02:11:55;101498.0;;;10.97;82.0
67430;BME280;54298;52.076;5.264;2023-04-29T02:13:31;101498.0;;;10.89;82.13
67430;BME280;54298;52.076;5.264;2023-04-29T02:15:08;101505.0;;;10.69;82.59
67430;BME280;54298;52.076;5.264;2023-04-29T02:18:19;101503.0;;;10.81;82.43
67430;BME280;54298;52.076;5.264;2023-04-29T02:19:55;101503.0;;;10.87;82.48
67430;BME280;54298;52.076;5.264;2023-04-29T02:21:30;101505.0;;;10.83;82.32
67430;BME280;54298;52.076;5.264;2023-04-29T02:24:42;101511.0;;;10.83;82.36
67430;BME280;54298;52.076;5.264;2023-04-29T02:26:19;101512.0;;;10.59;82.84
67430;BME280;54298;52.076;5.264;2023-04-29T02:27:55;101519.0;;;10.8;82.28
67430;BME280;54298;52.076;5.264;2023-04-29T02:31:08;101521.0;;;10.89;81.87
67430;BME280;54298;52.076;5.264;2023-04-29T02:32:44;101517.0;;;10.9;82.33
67430;BME280;54298;52.076;5.264;2023-04-29T02:34:20;101523.0;;;10.97;82.19
67430;BME280;54298;52.076;5.264;2023-04-29T02:35:56;101527.0;;;10.83;82.13
67430;BME280;54298;52.076;5.264;2023-04-29T02:39:08;101528.0;;;10.86;82.06
67430;BME280;54298;52.076;5.264;2023-04-29T02:40:45;101532.0;;;10.8;82.45
67430;BME280;54298;52.076;5.264;2023-04-29T02:42:21;101537.0;;;10.95;81.99
67430;BME280;54298;52.076;5.264;2023-04-29T02:45:34;101537.0;;;10.96;81.78
67430;BME280;54298;52.076;5.264;2023-04-29T02:47:10;101534.0;;;10.93;81.74
67430;BME280;54298;52.076;5.264;2023-04-29T02:48:46;101536.0;;;10.7;82.53
67430;BME280;54298;52.076;5.264;2023-04-29T02:51:58;101538.0;;;10.85;81.94
67430;BME280;54298;52.076;5.264;2023-04-29T02:53:34;101544.0;;;10.88;81.91
67430;BME280;54298;52.076;5.264;2023-04-29T02:55:10;101547.0;;;10.99;81.91
67430;BME280;54298;52.076;5.264;2023-04-29T02:58:23;101546.0;;;10.97;82.17
67430;BME280;54298;52.076;5.264;2023-04-29T02:59:59;101549.0;;;10.94;82.26
67430;BME280;54298;52.076;5.264;2023-04-29T03:01:35;101547.0;;;10.99;82.12
67430;BME280;54298;52.076;5.264;2023-04-29T03:03:11;101551.0;;;10.85;81.66
67430;BME280;54298;52.076;5.264;2023-04-29T03:06:24;101558.0;;;11.07;81.33
67430;BME280;54298;52.076;5.264;2023-04-29T03:08:00;101562.0;;;11.09;81.16
67430;BME280;54298;52.076;5.264;2023-04-29T03:09:36;101560.0;;;10.99;81.59
67430;BME280;54298;52.076;5.264;2023-04-29T03:12:49;101558.0;;;11.0;81.22
67430;BME280;54298;52.076;5.264;2023-04-29T03:14:25;101566.0;;;11.0;81.27
67430;BME280;54298;52.076;5.264;2023-04-29T03:16:01;101568.0;;;10.93;81.37
67430;BME280;54298;52.076;5.264;2023-04-29T03:19:13;101572.0;;;10.98;81.33
67430;BME280;54298;52.076;5.264;2023-04-29T03:20:49;101575.0;;;10.93;81.49
67430;BME280;54298;52.076;5.264;2023-04-29T03:22:25;101576.0;;;10.93;81.64
67430;BME280;54298;52.076;5.264;2023-04-29T03:24:01;101571.0;;;10.88;81.99
67430;BME280;54298;52.076;5.264;2023-04-29T03:27:14;101572.0;;;10.94;81.89
67430;BME280;54298;52.076;5.264;2023-04-29T03:28:50;101572.0;;;10.9;81.96
67430;BME280;54298;52.076;5.264;2023-04-29T03:30:26;101576.0;;;10.94;81.83
67430;BME280;54298;52.076;5.264;2023-04-29T03:33:38;101580.0;;;10.77;82.52
67430;BME280;54298;52.076;5.264;2023-04-29T03:35:14;101583.0;;;11.1;81.7
67430;BME280;54298;52.076;5.264;2023-04-29T03:36:51;101583.0;;;11.06;81.77
67430;BME280;54298;52.076;5.264;2023-04-29T03:40:03;101582.0;;;11.07;81.74
67430;BME280;54298;52.076;5.264;2023-04-29T03:41:40;101586.0;;;11.02;81.75
67430;BME280;54298;52.076;5.264;2023-04-29T03:43:16;101585.0;;;11.0;81.61
67430;BME280;54298;52.076;5.264;2023-04-29T03:46:28;101590.0;;;10.99;81.69
67430;BME280;54298;52.076;5.264;2023-04-29T03:48:05;101587.0;;;10.96;81.86
67430;BME280;54298;52.076;5.264;2023-04-29T03:49:41;101588.0;;;11.05;81.56
67430;BME280;54298;52.076;5.264;2023-04-29T03:51:17;101589.0;;;10.86;82.09
67430;BME280;54298;52.076;5.264;2023-04-29T03:54:30;101591.0;;;10.88;82.39
67430;BME280;54298;52.076;5.264;2023-04-29T03:56:06;101586.0;;;10.91;82.27
67430;BME280;54298;52.076;5.264;2023-04-29T03:57:42;101596.0;;;10.85;82.79
67430;BME280;54298;52.076;5.264;2023-04-29T04:00:54;101594.0;;;10.8;83.03
67430;BME280;54298;52.076;5.264;2023-04-29T04:02:30;101594.0;;;10.75;83.36
67430;BME280;54298;52.076;5.264;2023-04-29T04:04:07;101595.0;;;10.75;83.17
67430;BME280;54298;52.076;5.264;2023-04-29T04:07:18;101600.0;;;10.76;83.32
67430;BME280;54298;52.076;5.264;2023-04-29T04:08:55;101601.0;;;10.83;82.76
67430;BME280;54298;52.076;5.264;2023-04-29T04:10:31;101602.0;;;10.86;82.67
67430;BME280;54298;52.076;5.264;2023-04-29T04:12:08;101600.0;;;10.95;82.71
67430;BME280;54298;52.076;5.264;2023-04-29T04:15:20;101600.0;;;10.94;82.65
67430;BME280;54298;52.076;5.264;2023-04-29T04:16:56;101605.0;;;10.88;82.65
67430;BME280;54298;52.076;5.264;2023-04-29T04:18:32;101608.0;;;10.84;82.96
67430;BME280;54298;52.076;5.264;2023-04-29T04:21:46;101609.0;;;10.75;82.99
67430;BME280;54298;52.076;5.264;2023-04-29T04:23:22;101613.0;;;10.77;83.21
67430;BME280;54298;52.076;5.264;2023-04-29T04:24:58;101616.0;;;10.83;83.22
67430;BME280;54298;52.076;5.264;2023-04-29T04:28:10;101618.0;;;10.68;83.27
67430;BME280;54298;52.076;5.264;2023-04-29T04:29:46;101618.0;;;10.9;82.7
67430;BME280;54298;52.076;5.264;2023-04-29T04:31:22;101616.0;;;10.88;82.57
67430;BME280;54298;52.076;5.264;2023-04-29T04:34:36;101630.0;;;10.84;82.51
67430;BME280;54298;52.076;5.264;2023-04-29T04:36:12;101630.0;;;10.85;82.48
67430;BME280;54298;52.076;5.264;2023-04-29T04:37:48;101627.0;;;10.91;82.23
67430;BME280;54298;52.076;5.264;2023-04-29T04:39:24;101636.0;;;10.92;81.67
67430;BME280;54298;52.076;5.264;2023-04-29T04:42:36;101630.0;;;10.96;81.38
67430;BME280;54298;52.076;5.264;2023-04-29T04:44:12;101631.0;;;10.87;81.19
67430;BME280;54298;52.076;5.264;2023-04-29T04:45:48;101637.0;;;10.99;81.25
67430;BME280;54298;52.076;5.264;2023-04-29T04:49:01;101649.0;;;11.06;81.09
67430;BME280;54298;52.076;5.264;2023-04-29T04:50:37;101653.0;;;10.79;80.11
67430;BME280;54298;52.076;5.264;2023-04-29T04:52:13;101655.0;;;10.9;79.92
67430;BME280;54298;52.076;5.264;2023-04-29T04:55:25;101659.0;;;10.91;79.77
67430;BME280;54298;52.076;5.264;2023-04-29T04:57:01;101658.0;;;11.0;79.38
67430;BME280;54298;52.076;5.264;2023-04-29T04:58:37;101660.0;;;10.95;78.95
67430;BME280;54298;52.076;5.264;2023-04-29T05:00:15;101668.0;;;10.94;79.25
67430;BME280;54298;52.076;5.264;2023-04-29T05:03:28;101665.0;;;10.97;79.39
67430;BME280;54298;52.076;5.264;2023-04-29T05:05:04;101667.0;;;10.99;79.69
67430;BME280;54298;52.076;5.264;2023-04-29T05:06:40;101667.0;;;11.03;79.41
67430;BME280;54298;52.076;5.264;2023-04-29T05:09:52;101670.0;;;10.93;79.58
67430;BME280;54298;52.076;5.264;2023-04-29T05:11:28;101673.0;;;10.9;77.94
67430;BME280;54298;52.076;5.264;2023-04-29T05:13:04;101680.0;;;11.1;77.89
67430;BME280;54298;52.076;5.264;2023-04-29T05:16:17;101678.0;;;11.15;77.99
67430;BME280;54298;52.076;5.264;2023-04-29T05:19:29;101675.0;;;11.15;76.89
67430;BME280;54298;52.076;5.264;2023-04-29T05:22:41;101680.0;;;11.07;76.72
67430;BME280;54298;52.076;5.264;2023-04-29T05:24:17;101683.0;;;11.21;76.34
67430;BME280;54298;52.076;5.264;2023-04-29T05:25:53;101685.0;;;11.28;76.02
67430;BME280;54298;52.076;5.264;2023-04-29T05:29:05;101688.0;;;11.26;76.61
67430;BME280;54298;52.076;5.264;2023-04-29T05:30:42;101690.0;;;11.28;76.11
67430;BME280;54298;52.076;5.264;2023-04-29T05:32:18;101689.0;;;11.23;76.08
67430;BME280;54298;52.076;5.264;2023-04-29T05:33:54;101691.0;;;11.24;76.27
67430;BME280;54298;52.076;5.264;2023-04-29T05:37:06;101696.0;;;11.21;76.55
67430;BME280;54298;52.076;5.264;2023-04-29T05:38:42;101699.0;;;11.32;76.33
67430;BME280;54298;52.076;5.264;2023-04-29T05:40:19;101702.0;;;11.21;75.47
67430;BME280;54298;52.076;5.264;2023-04-29T05:43:32;101706.0;;;11.38;75.47
67430;BME280;54298;52.076;5.264;2023-04-29T05:45:09;101706.0;;;11.32;75.58
67430;BME280;54298;52.076;5.264;2023-04-29T05:46:45;101711.0;;;11.36;75.88
67430;BME280;54298;52.076;5.264;2023-04-29T05:49:57;101710.0;;;11.38;75.77
67430;BME280;54298;52.076;5.264;2023-04-29T05:51:34;101714.0;;;11.34;75.14
67430;BME280;54298;52.076;5.264;2023-04-29T05:53:10;101711.0;;;11.31;74.8
67430;BME280;54298;52.076;5.264;2023-04-29T05:54:46;101719.0;;;11.38;74.55
67430;BME280;54298;52.076;5.264;2023-04-29T05:57:59;101721.0;;;11.45;74.27
67430;BME280;54298;52.076;5.264;2023-04-29T05:59:35;101718.0;;;11.47;74.11
67430;BME280;54298;52.076;5.264;2023-04-29T06:01:11;101725.0;;;11.44;74.36
67430;BME280;54298;52.076;5.264;2023-04-29T06:04:23;101730.0;;;11.48;75.08
67430;BME280;54298;52.076;5.264;2023-04-29T06:06:00;101732.0;;;11.6;74.58
67430;BME280;54298;52.076;5.264;2023-04-29T06:07:38;101734.0;;;11.61;75.49
67430;BME280;54298;52.076;5.264;2023-04-29T06:10:51;101742.0;;;11.68;74.99
67430;BME280;54298;52.076;5.264;2023-04-29T06:12:27;101741.0;;;11.56;75.69
67430;BME280;54298;52.076;5.264;2023-04-29T06:14:03;101745.0;;;11.57;76.02
67430;BME280;54298;52.076;5.264;2023-04-29T06:15:39;101747.0;;;11.63;76.0
67430;BME280;54298;52.076;5.264;2023-04-29T06:18:51;101750.0;;;11.71;75.8
67430;BME280;54298;52.076;5.264;2023-04-29T06:20:28;101750.0;;;11.81;75.52
67430;BME280;54298;52.076;5.264;2023-04-29T06:22:04;101755.0;;;11.8;75.83
67430;BME280;54298;52.076;5.264;2023-04-29T06:25:16;101753.0;;;11.53;76.62
67430;BME280;54298;52.076;5.264;2023-04-29T06:26:52;101755.0;;;11.38;77.62
67430;BME280;54298;52.076;5.264;2023-04-29T06:28:28;101763.0;;;11.31;78.05
67430;BME280;54298;52.076;5.264;2023-04-29T06:31:42;101772.0;;;11.4;78.41
67430;BME280;54298;52.076;5.264;2023-04-29T06:33:18;101771.0;;;11.29;78.41
67430;BME280;54298;52.076;5.264;2023-04-29T06:34:54;101774.0;;;11.5;78.11
67430;BME280;54298;52.076;5.264;2023-04-29T06:36:31;101781.0;;;11.45;78.41
67430;BME280;54298;52.076;5.264;2023-04-29T06:39:43;101781.0;;;11.4;78.14
67430;BME280;54298;52.076;5.264;2023-04-29T06:41:19;101785.0;;;11.49;77.88
67430;BME280;54298;52.076;5.264;2023-04-29T06:42:55;101789.0;;;11.63;77.63
67430;BME280;54298;52.076;5.264;2023-04-29T06:46:07;101792.0;;;11.48;77.52
67430;BME280;54298;52.076;5.264;2023-04-29T06:47:44;101798.0;;;11.7;76.5
67430;BME280;54298;52.076;5.264;2023-04-29T06:49:21;101793.0;;;11.59;75.19
67430;BME280;54298;52.076;5.264;2023-04-29T06:52:33;101800.0;;;11.87;74.83
67430;BME280;54298;52.076;5.264;2023-04-29T06:54:09;101800.0;;;11.95;74.86
67430;BME280;54298;52.076;5.264;2023-04-29T06:55:45;101798.0;;;12.12;74.53
67430;BME280;54298;52.076;5.264;2023-04-29T06:58:58;101805.0;;;11.93;74.66
67430;BME280;54298;52.076;5.264;2023-04-29T07:00:33;101806.0;;;11.77;73.8
67430;BME280;54298;52.076;5.264;2023-04-29T07:02:10;101806.0;;;11.79;74.58
67430;BME280;54298;52.076;5.264;2023-04-29T07:03:46;101809.0;;;11.86;74.81
67430;BME280;54298;52.076;5.264;2023-04-29T07:06:58;101813.0;;;11.93;72.86
67430;BME280;54298;52.076;5.264;2023-04-29T07:08:34;101814.0;;;11.91;72.74
67430;BME280;54298;52.076;5.264;2023-04-29T07:10:10;101816.0;;;12.12;72.58
67430;BME280;54298;52.076;5.264;2023-04-29T07:13:23;101816.0;;;12.34;73.52
67430;BME280;54298;52.076;5.264;2023-04-29T07:15:00;101826.0;;;12.42;72.27
67430;BME280;54298;52.076;5.264;2023-04-29T07:16:36;101832.0;;;12.33;72.88
67430;BME280;54298;52.076;5.264;2023-04-29T07:19:48;101836.0;;;12.38;72.94
67430;BME280;54298;52.076;5.264;2023-04-29T07:21:24;101835.0;;;12.39;72.8
67430;BME280;54298;52.076;5.264;2023-04-29T07:23:01;101838.0;;;12.63;72.56
67430;BME280;54298;52.076;5.264;2023-04-29T07:24:37;101844.0;;;12.39;72.24
67430;BME280;54298;52.076;5.264;2023-04-29T07:27:52;101845.0;;;12.51;73.0
67430;BME280;54298;52.076;5.264;2023-04-29T07:29:28;101849.0;;;12.11;72.83
67430;BME280;54298;52.076;5.264;2023-04-29T07:31:04;101853.0;;;12.27;71.94
67430;BME280;54298;52.076;5.264;2023-04-29T07:34:16;101853.0;;;12.18;72.16
67430;BME280;54298;52.076;5.264;2023-04-29T07:35:52;101858.0;;;12.2;72.14
67430;BME280;54298;52.076;5.264;2023-04-29T07:37:29;101860.0;;;12.38;71.87
67430;BME280;54298;52.076;5.264;2023-04-29T07:40:42;101863.0;;;12.39;71.33
67430;BME280;54298;52.076;5.264;2023-04-29T07:42:18;101864.0;;;12.41;71.44
67430;BME280;54298;52.076;5.264;2023-04-29T07:43:54;101862.0;;;12.4;71.22
67430;BME280;54298;52.076;5.264;2023-04-29T07:45:30;101859.0;;;12.43;71.69
67430;BME280;54298;52.076;5.264;2023-04-29T07:48:43;101870.0;;;12.6;71.28
67430;BME280;54298;52.076;5.264;2023-04-29T07:50:19;101876.0;;;12.44;70.88
67430;BME280;54298;52.076;5.264;2023-04-29T07:51:55;101874.0;;;12.38;70.39
67430;BME280;54298;52.076;5.264;2023-04-29T07:56:44;101875.0;;;12.24;69.92
67430;BME280;54298;52.076;5.264;2023-04-29T07:58:20;101878.0;;;12.35;69.05
67430;BME280;54298;52.076;5.264;2023-04-29T08:01:32;101880.0;;;12.55;68.87
67430;BME280;54298;52.076;5.264;2023-04-29T08:03:08;101876.0;;;12.67;68.94
67430;BME280;54298;52.076;5.264;2023-04-29T08:04:45;101880.0;;;12.76;68.47
67430;BME280;54298;52.076;5.264;2023-04-29T08:07:57;101886.0;;;12.84;67.58
67430;BME280;54298;52.076;5.264;2023-04-29T08:09:33;101888.0;;;13.0;66.69
67430;BME280;54298;52.076;5.264;2023-04-29T08:11:14;101883.0;;;13.13;66.91
67430;BME280;54298;52.076;5.264;2023-04-29T08:12:51;101886.0;;;13.23;66.77
67430;BME280;54298;52.076;5.264;2023-04-29T08:16:04;101888.0;;;13.47;65.72
67430;BME280;54298;52.076;5.264;2023-04-29T08:17:39;101894.0;;;13.29;66.91
67430;BME280;54298;52.076;5.264;2023-04-29T08:19:16;101894.0;;;13.14;64.81
67430;BME280;54298;52.076;5.264;2023-04-29T08:22:28;101900.0;;;12.89;65.52
67430;BME280;54298;52.076;5.264;2023-04-29T08:24:04;101902.0;;;13.19;66.48
67430;BME280;54298;52.076;5.264;2023-04-29T08:25:41;101897.0;;;13.01;65.75
67430;BME280;54298;52.076;5.264;2023-04-29T08:28:53;101897.0;;;13.13;65.53
67430;BME280;54298;52.076;5.264;2023-04-29T08:30:29;101899.0;;;12.99;66.53
67430;BME280;54298;52.076;5.264;2023-04-29T08:32:06;101898.0;;;12.87;65.41
67430;BME280;54298;52.076;5.264;2023-04-29T08:33:42;101897.0;;;12.78;66.0
67430;BME280;54298;52.076;5.264;2023-04-29T08:36:55;101895.0;;;12.83;66.22
67430;BME280;54298;52.076;5.264;2023-04-29T08:38:32;101897.0;;;12.77;65.8
67430;BME280;54298;52.076;5.264;2023-04-29T08:40:09;101898.0;;;12.97;65.94
67430;BME280;54298;52.076;5.264;2023-04-29T08:43:22;101896.0;;;12.95;65.19
67430;BME280;54298;52.076;5.264;2023-04-29T08:44:59;101895.0;;;12.83;65.99
67430;BME280;54298;52.076;5.264;2023-04-29T08:46:37;101893.0;;;12.85;65.14
67430;BME280;54298;52.076;5.264;2023-04-29T08:49:52;101899.0;;;12.82;66.14
67430;BME280;54298;52.076;5.264;2023-04-29T08:51:28;101912.0;;;12.71;65.3
67430;BME280;54298;52.076;5.264;2023-04-29T08:53:04;101910.0;;;12.62;65.14
67430;BME280;54298;52.076;5.264;2023-04-29T08:54:40;101913.0;;;12.8;64.92
67430;BME280;54298;52.076;5.264;2023-04-29T08:57:54;101919.0;;;12.93;64.45
67430;BME280;54298;52.076;5.264;2023-04-29T08:59:31;101915.0;;;12.92;63.62
67430;BME280;54298;52.076;5.264;2023-04-29T09:01:08;101911.0;;;12.87;63.49
67430;BME280;54298;52.076;5.264;2023-04-29T09:04:35;101913.0;;;12.93;64.37
67430;BME280;54298;52.076;5.264;2023-04-29T09:06:16;101912.0;;;13.08;64.44
67430;BME280;54298;52.076;5.264;2023-04-29T09:07:53;101910.0;;;13.33;64.11
67430;BME280;54298;52.076;5.264;2023-04-29T09:09:32;101914.0;;;13.47;63.7
67430;BME280;54298;52.076;5.264;2023-04-29T09:12:45;101920.0;;;13.6;63.26
67430;BME280;54298;52.076;5.264;2023-04-29T09:14:22;101924.0;;;13.66;63.62
67430;BME280;54298;52.076;5.264;2023-04-29T09:15:58;101935.0;;;13.36;62.32
67430;BME280;54298;52.076;5.264;2023-04-29T09:17:39;101935.0;;;13.28;61.79
67430;BME280;54298;52.076;5.264;2023-04-29T09:21:12;101932.0;;;13.09;61.98
67430;BME280;54298;52.076;5.264;2023-04-29T09:22:49;101931.0;;;13.43;62.13
67430;BME280;54298;52.076;5.264;2023-04-29T09:24:28;101936.0;;;13.36;62.39
67430;BME280;54298;52.076;5.264;2023-04-29T09:26:05;101936.0;;;13.34;61.95
67430;BME280;54298;52.076;5.264;2023-04-29T09:29:17;101935.0;;;13.46;61.4
67430;BME280;54298;52.076;5.264;2023-04-29T09:30:53;101930.0;;;13.63;61.21
67430;BME280;54298;52.076;5.264;2023-04-29T09:32:29;101935.0;;;13.74;59.7
67430;BME280;54298;52.076;5.264;2023-04-29T09:35:42;101935.0;;;13.87;59.88
67430;BME280;54298;52.076;5.264;2023-04-29T09:37:23;101927.0;;;14.1;59.35
67430;BME280;54298;52.076;5.264;2023-04-29T09:39:00;101931.0;;;14.06;59.52
67430;BME280;54298;52.076;5.264;2023-04-29T09:42:13;101938.0;;;14.2;59.31
67430;BME280;54298;52.076;5.264;2023-04-29T09:44:01;101937.0;;;14.24;58.93
67430;BME280;54298;52.076;5.264;2023-04-29T09:45:39;101944.0;;;14.26;58.04
67430;BME280;54298;52.076;5.264;2023-04-29T09:47:16;101947.0;;;14.61;57.58
67430;BME280;54298;52.076;5.264;2023-04-29T09:50:28;101950.0;;;14.74;55.23
67430;BME280;54298;52.076;5.264;2023-04-29T09:52:06;101951.0;;;14.66;55.18
67430;BME280;54298;52.076;5.264;2023-04-29T09:53:42;101944.0;;;14.67;55.66
67430;BME280;54298;52.076;5.264;2023-04-29T09:55:18;101949.0;;;14.66;55.61
67430;BME280;54298;52.076;5.264;2023-04-29T09:58:34;101949.0;;;14.48;55.41
67430;BME280;54298;52.076;5.264;2023-04-29T10:00:11;101947.0;;;14.41;54.98
67430;BME280;54298;52.076;5.264;2023-04-29T10:01:48;101955.0;;;14.47;55.38
67430;BME280;54298;52.076;5.264;2023-04-29T10:05:06;101937.0;;;14.75;54.87
67430;BME280;54298;52.076;5.264;2023-04-29T10:06:45;101943.0;;;14.67;56.33
67430;BME280;54298;52.076;5.264;2023-04-29T10:08:24;101945.0;;;14.63;55.0
67430;BME280;54298;52.076;5.264;2023-04-29T10:10:03;101941.0;;;14.75;54.79
67430;BME280;54298;52.076;5.264;2023-04-29T10:13:18;101940.0;;;14.84;54.73
67430;BME280;54298;52.076;5.264;2023-04-29T10:15:01;101944.0;;;14.67;55.08
67430;BME280;54298;52.076;5.264;2023-04-29T10:16:45;101938.0;;;14.65;53.46
67430;BME280;54298;52.076;5.264;2023-04-29T10:18:25;101939.0;;;14.91;54.83
67430;BME280;54298;52.076;5.264;2023-04-29T10:21:47;101940.0;;;15.03;53.72
67430;BME280;54298;52.076;5.264;2023-04-29T10:23:25;101942.0;;;15.21;53.88
67430;BME280;54298;52.076;5.264;2023-04-29T10:25:01;101946.0;;;15.34;52.85
67430;BME280;54298;52.076;5.264;2023-04-29T10:26:42;101939.0;;;15.43;52.44
67430;BME280;54298;52.076;5.264;2023-04-29T10:29:59;101951.0;;;15.64;52.33
67430;BME280;54298;52.076;5.264;2023-04-29T10:31:38;101947.0;;;15.72;50.9
67430;BME280;54298;52.076;5.264;2023-04-29T10:33:16;101953.0;;;15.64;51.62
67430;BME280;54298;52.076;5.264;2023-04-29T10:36:32;101951.0;;;16.0;51.52
67430;BME280;54298;52.076;5.264;2023-04-29T10:38:13;101958.0;;;15.94;49.91
67430;BME280;54298;52.076;5.264;2023-04-29T10:40:00;101948.0;;;15.98;49.38
67430;BME280;54298;52.076;5.264;2023-04-29T10:41:47;101950.0;;;16.16;50.51
67430;BME280;54298;52.076;5.264;2023-04-29T10:43:26;101955.0;;;16.22;50.26
67430;BME280;54298;52.076;5.264;2023-04-29T10:47:18;101960.0;;;16.25;50.25
67430;BME280;54298;52.076;5.264;2023-04-29T10:48:57;101963.0;;;16.0;48.43
67430;BME280;54298;52.076;5.264;2023-04-29T10:50:40;101961.0;;;15.83;50.23
67430;BME280;54298;52.076;5.264;2023-04-29T10:52:50;101962.0;;;15.91;50.27
67430;BME280;54298;52.076;5.264;2023-04-29T10:54:27;101964.0;;;15.8;51.38
67430;BME280;54298;52.076;5.264;2023-04-29T10:56:06;101955.0;;;15.81;49.22
67430;BME280;54298;52.076;5.264;2023-04-29T10:59:21;101957.0;;;15.79;49.94
67430;BME280;54298;52.076;5.264;2023-04-29T11:01:39;101955.0;;;15.89;49.67
67430;BME280;54298;52.076;5.264;2023-04-29T11:03:44;101953.0;;;15.93;48.62
67430;BME280;54298;52.076;5.264;2023-04-29T11:05:29;101960.0;;;15.92;48.55
67430;BME280;54298;52.076;5.264;2023-04-29T11:07:06;101963.0;;;15.77;48.17
67430;BME280;54298;52.076;5.264;2023-04-29T11:08:42;101960.0;;;15.78;48.55